This is the latest recevied weather packets stored in our database for station/object DL7MAP-13. If no packets are shown the sender has not sent any weather packets the latest 10 day(s).
| Time | Temp. | Humidity | Pressure | Rain* | Wind** | Luminosity | Snow |
|---|---|---|---|---|---|---|---|
| 1777541287 | 17.22° C | 35% | 1027.2 hPa | - | - | - | - |
| 1777540387 | 16.67° C | 35% | 1028.2 hPa | - | - | - | - |
| 1777539487 | 16.67° C | 35% | 1027.6 hPa | - | - | - | - |
| 1777538587 | 15.56° C | 37% | 1028 hPa | - | - | - | - |
| 1777537693 | 15.56° C | 36% | 1027.5 hPa | - | - | - | - |
| 1777536787 | 14.44° C | 40% | 1028.4 hPa | - | - | - | - |
| 1777535887 | 13.89° C | 40% | 1027.7 hPa | - | - | - | - |
| 1777534987 | 12.78° C | 43% | 1027.6 hPa | - | - | - | - |
| 1777534087 | 12.22° C | 45% | 1028.2 hPa | - | - | - | - |
| 1777533187 | 11.67° C | 47% | 1027.8 hPa | - | - | - | - |
| 1777532286 | 11.11° C | 48% | 1026.9 hPa | - | - | - | - |
| 1777531387 | 11.11° C | 49% | 1028 hPa | - | - | - | - |
| 1777530487 | 11.11° C | 51% | 1027 hPa | - | - | - | - |
| 1777529587 | 10° C | 55% | 1028.1 hPa | - | - | - | - |
| 1777528686 | 9.44° C | 56% | 1027.4 hPa | - | - | - | - |
| 1777527787 | 8.33° C | 62% | 1027.1 hPa | - | - | - | - |
| 1777526887 | 7.22° C | 70% | 1027.6 hPa | - | - | - | - |
| 1777525987 | 6.67° C | 72% | 1027.5 hPa | - | - | - | - |
| 1777525087 | 6.11° C | 75% | 1027.7 hPa | - | - | - | - |
| 1777524187 | 3.89° C | 81% | 1027.6 hPa | - | - | - | - |
| 1777523287 | 2.22° C | 83% | 1027.4 hPa | - | - | - | - |
| 1777522387 | 0° C | 84% | 1027.2 hPa | - | - | - | - |
| 1777521487 | 0° C | 84% | 1027.2 hPa | - | - | - | - |
| 1777520586 | 0° C | 84% | 1027.2 hPa | - | - | - | - |
| 1777519686 | 0.56° C | 83% | 1026.9 hPa | - | - | - | - |
* Rain since midnight (hover to see other rain measurements)
** Current wind speed in m/s (hover to see current wind gust speed)